Time;durP1;ratioP1;P1;durP2;ratioP2;P2;SDS_P1;SDS_P2;PMS_P1;PMS_P2;Temp;Humidity;BMP_temperature;BMP_pressure;BME280_temperature;BME280_humidity;BME280_pressure;Samples;Min_cycle;Max_cycle;Signal;HPM_P1;HPM_P2
2023/01/14 00:01:33;;;;;;;3.00;0.93;;;;;;;;;;5056398;28;20024;-77
2023/01/14 00:03:58;;;;;;;4.57;1.00;;;;;;;;;;5074597;28;20038;-78
2023/01/14 00:06:26;;;;;;;6.45;1.00;;;;;;;;;;5078115;28;20055;-79
2023/01/14 00:08:56;;;;;;;1.42;0.55;;;;;;;;;;5078542;28;20088;-79
2023/01/14 00:11:45;;;;;;;4.53;1.00;;;;;;;;;;5077972;28;20032;-78
2023/01/14 00:14:13;;;;;;;2.55;0.88;;;;;;;;;;5077526;28;20048;-78
2023/01/14 00:16:38;;;;;;;4.47;0.80;;;;;;;;;;5077942;28;20020;-79
2023/01/14 00:19:03;;;;;;;6.15;0.90;;;;;;;;;;5077360;28;20432;-79
2023/01/14 00:21:29;;;;;;;2.60;0.60;;;;;;;;;;5078279;28;20020;-79
2023/01/14 00:23:54;;;;;;;2.25;0.90;;;;;;;;;;5061413;28;20528;-80
2023/01/14 00:26:20;;;;;;;1.83;0.65;;;;;;;;;;5079653;28;20032;-79
2023/01/14 00:28:46;;;;;;;2.78;0.82;;;;;;;;;;5078374;28;20371;-79
2023/01/14 00:31:15;;;;;;;3.13;1.23;;;;;;;;;;5077977;28;20562;-79
2023/01/14 00:33:40;;;;;;;3.70;0.75;;;;;;;;;;5078031;28;20496;-79
2023/01/14 00:36:07;;;;;;;2.40;0.82;;;;;;;;;;5059853;28;20024;-79
2023/01/14 00:38:33;;;;;;;5.88;0.85;;;;;;;;;;5078375;28;20120;-80
2023/01/14 00:41:01;;;;;;;2.47;0.77;;;;;;;;;;5060300;28;20174;-80
2023/01/14 00:43:26;;;;;;;3.15;0.80;;;;;;;;;;5078371;28;20031;-80
2023/01/14 00:45:51;;;;;;;2.90;1.10;;;;;;;;;;5078679;28;20036;-80
2023/01/14 00:48:16;;;;;;;7.27;1.00;;;;;;;;;;5078397;28;20256;-80
2023/01/14 00:50:42;;;;;;;5.45;1.15;;;;;;;;;;5059749;28;20265;-80
2023/01/14 00:53:07;;;;;;;3.87;0.90;;;;;;;;;;5078209;28;20025;-80
2023/01/14 00:55:34;;;;;;;3.15;1.00;;;;;;;;;;5078007;28;20261;-80
2023/01/14 00:57:59;;;;;;;3.00;1.38;;;;;;;;;;5060212;28;20024;-79
2023/01/14 01:00:24;;;;;;;3.20;0.70;;;;;;;;;;5060389;28;20047;-80
2023/01/14 01:02:50;;;;;;;2.42;0.70;;;;;;;;;;5078279;28;20253;-78
2023/01/14 01:05:15;;;;;;;4.28;0.88;;;;;;;;;;5077623;28;20020;-80
2023/01/14 01:07:41;;;;;;;3.03;0.68;;;;;;;;;;5077189;28;20398;-80
2023/01/14 01:10:08;;;;;;;5.93;1.05;;;;;;;;;;5077500;28;20025;-81
2023/01/14 01:12:33;;;;;;;1.55;0.70;;;;;;;;;;5077896;28;20481;-80
2023/01/14 01:14:58;;;;;;;2.67;0.80;;;;;;;;;;5078563;28;20070;-79
2023/01/14 01:17:23;;;;;;;3.00;0.70;;;;;;;;;;5077811;28;20279;-79
2023/01/14 01:19:50;;;;;;;5.70;0.90;;;;;;;;;;5059169;28;20277;-78
2023/01/14 01:22:16;;;;;;;2.45;0.85;;;;;;;;;;5077575;28;20276;-79
2023/01/14 01:24:41;;;;;;;3.40;0.80;;;;;;;;;;5076756;28;20485;-80
2023/01/14 01:27:06;;;;;;;2.07;0.80;;;;;;;;;;5077596;28;20432;-81
2023/01/14 01:29:32;;;;;;;4.65;0.68;;;;;;;;;;5077636;28;20689;-79
2023/01/14 01:31:57;;;;;;;2.55;0.90;;;;;;;;;;5077877;28;20131;-80
2023/01/14 01:34:23;;;;;;;2.95;0.70;;;;;;;;;;5078322;28;20024;-79
2023/01/14 01:36:48;;;;;;;2.80;0.87;;;;;;;;;;5060330;28;20028;-80
2023/01/14 01:39:13;;;;;;;3.90;0.70;;;;;;;;;;5078789;28;20288;-80
2023/01/14 01:41:38;;;;;;;5.38;1.13;;;;;;;;;;5078434;28;20269;-80
2023/01/14 01:44:12;;;;;;;5.63;0.70;;;;;;;;;;5078842;28;20097;-80
2023/01/14 01:46:39;;;;;;;6.95;0.90;;;;;;;;;;5077942;28;20064;-80
2023/01/14 01:49:11;;;;;;;4.80;0.95;;;;;;;;;;5059413;28;20020;-79
2023/01/14 01:51:45;;;;;;;4.95;1.00;;;;;;;;;;5076558;28;20090;-79
2023/01/14 01:54:12;;;;;;;1.90;0.73;;;;;;;;;;5076438;28;20048;-79
2023/01/14 01:56:39;;;;;;;1.42;0.73;;;;;;;;;;5059378;28;20024;-79
2023/01/14 01:59:08;;;;;;;3.53;0.80;;;;;;;;;;5077089;28;20029;-80
2023/01/14 02:01:33;;;;;;;2.47;0.80;;;;;;;;;;5076609;28;20058;-79
2023/01/14 02:03:59;;;;;;;3.65;0.90;;;;;;;;;;5059354;28;20033;-80
2023/01/14 02:06:24;;;;;;;2.72;0.80;;;;;;;;;;5077021;28;20024;-81
2023/01/14 02:08:53;;;;;;;4.65;0.70;;;;;;;;;;5076793;28;20025;-81
2023/01/14 02:11:56;;;;;;;3.50;0.80;;;;;;;;;;5076642;28;20028;-81
2023/01/14 02:14:41;;;;;;;3.67;0.85;;;;;;;;;;5077102;28;20363;-80
2023/01/14 02:17:28;;;;;;;5.05;1.02;;;;;;;;;;5076273;28;20024;-79
2023/01/14 02:20:18;;;;;;;4.43;0.75;;;;;;;;;;5058120;28;20367;-80
2023/01/14 02:23:29;;;;;;;3.85;0.85;;;;;;;;;;5059054;28;20036;-80
2023/01/14 02:26:20;;;;;;;4.78;1.10;;;;;;;;;;4994938;28;20026;-80
2023/01/14 02:29:03;;;;;;;2.63;0.75;;;;;;;;;;5075961;28;20021;-80
2023/01/14 02:31:38;;;;;;;1.02;0.60;;;;;;;;;;5076966;28;20020;-81
2023/01/14 02:34:13;;;;;;;3.15;0.93;;;;;;;;;;5058554;28;20038;-80
2023/01/14 02:37:06;;;;;;;3.95;0.75;;;;;;;;;;5076596;28;20021;-80
2023/01/14 02:39:57;;;;;;;6.43;0.90;;;;;;;;;;5077135;28;20031;-79
2023/01/14 02:45:30;;;;;;;6.32;1.00;;;;;;;;;;5076382;28;20176;-80
2023/01/14 02:47:59;;;;;;;2.60;0.60;;;;;;;;;;5057960;28;20027;-82
2023/01/14 02:50:25;;;;;;;3.55;0.80;;;;;;;;;;5076775;28;20492;-79
2023/01/14 02:52:51;;;;;;;2.22;0.70;;;;;;;;;;5058431;28;20039;-81
2023/01/14 02:55:34;;;;;;;3.58;0.95;;;;;;;;;;5076583;28;20029;-80
2023/01/14 02:58:20;;;;;;;2.42;0.77;;;;;;;;;;5058610;28;20028;-79
2023/01/14 03:00:59;;;;;;;2.33;0.70;;;;;;;;;;5076296;28;20036;-80
2023/01/14 03:03:45;;;;;;;4.90;0.73;;;;;;;;;;5058153;28;20055;-79
2023/01/14 03:06:49;;;;;;;5.72;0.88;;;;;;;;;;5076537;28;20028;-80
2023/01/14 03:09:30;;;;;;;2.28;1.05;;;;;;;;;;5076423;28;20044;-79
2023/01/14 03:12:02;;;;;;;1.88;0.70;;;;;;;;;;5058770;28;20031;-80
2023/01/14 03:14:38;;;;;;;3.08;0.80;;;;;;;;;;5075350;28;20029;-79
2023/01/14 03:17:27;;;;;;;2.50;0.80;;;;;;;;;;5076244;28;20024;-80
2023/01/14 03:20:04;;;;;;;1.92;0.60;;;;;;;;;;5075833;28;20519;-78
2023/01/14 03:22:31;;;;;;;3.35;0.88;;;;;;;;;;5076444;28;20036;-78
2023/01/14 03:24:57;;;;;;;4.72;1.30;;;;;;;;;;5076401;28;20027;-80
2023/01/14 03:27:27;;;;;;;4.00;0.95;;;;;;;;;;5075213;28;20028;-80
2023/01/14 03:30:01;;;;;;;2.10;0.60;;;;;;;;;;5076265;28;20078;-79
2023/01/14 03:32:36;;;;;;;3.25;0.60;;;;;;;;;;5075722;28;20370;-79
2023/01/14 03:35:12;;;;;;;2.72;0.80;;;;;;;;;;5074597;28;20029;-80
2023/01/14 03:37:41;;;;;;;7.38;0.63;;;;;;;;;;5074130;28;20402;-79
2023/01/14 03:40:11;;;;;;;1.80;0.60;;;;;;;;;;5075656;28;20069;-80
2023/01/14 03:42:47;;;;;;;1.92;0.65;;;;;;;;;;5060385;28;20113;-79
2023/01/14 03:45:28;;;;;;;3.90;0.68;;;;;;;;;;5078569;28;20432;-79
2023/01/14 03:47:53;;;;;;;2.72;0.80;;;;;;;;;;5060839;28;20553;-79
2023/01/14 03:50:25;;;;;;;4.22;0.80;;;;;;;;;;5061631;28;20117;-81
2023/01/14 03:53:17;;;;;;;4.20;0.65;;;;;;;;;;5079963;28;20476;-79
2023/01/14 03:55:56;;;;;;;3.42;0.77;;;;;;;;;;5061253;28;20053;-80
2023/01/14 03:58:30;;;;;;;2.33;0.57;;;;;;;;;;5079149;28;20020;-79
2023/01/14 04:01:01;;;;;;;4.22;0.75;;;;;;;;;;5079699;28;20111;-80
2023/01/14 04:03:27;;;;;;;2.03;0.70;;;;;;;;;;5061179;28;20575;-79
2023/01/14 04:05:53;;;;;;;3.85;0.65;;;;;;;;;;5078990;28;20115;-79
2023/01/14 04:08:24;;;;;;;3.08;1.00;;;;;;;;;;5080018;28;20032;-79
2023/01/14 04:10:50;;;;;;;3.00;0.80;;;;;;;;;;5061741;28;20024;-79
2023/01/14 04:16:01;;;;;;;6.53;1.02;;;;;;;;;;5078950;28;20058;-81
2023/01/14 04:18:26;;;;;;;3.70;0.93;;;;;;;;;;5060393;28;20477;-80
2023/01/14 04:20:51;;;;;;;2.72;0.90;;;;;;;;;;5078601;28;20070;-80
2023/01/14 04:23:16;;;;;;;4.65;0.90;;;;;;;;;;5078027;28;20028;-80
2023/01/14 04:25:42;;;;;;;2.80;0.90;;;;;;;;;;5077994;28;20039;-79
2023/01/14 04:28:07;;;;;;;4.33;1.13;;;;;;;;;;5060225;28;20538;-80
2023/01/14 04:30:32;;;;;;;4.18;0.80;;;;;;;;;;5078353;28;20812;-80
2023/01/14 04:32:57;;;;;;;3.90;1.10;;;;;;;;;;5078218;28;20043;-80
2023/01/14 04:35:23;;;;;;;3.33;0.80;;;;;;;;;;5079025;28;20028;-79
2023/01/14 04:37:50;;;;;;;3.22;0.90;;;;;;;;;;5077607;28;20059;-79
2023/01/14 04:40:16;;;;;;;3.67;0.70;;;;;;;;;;5077894;28;20024;-79
2023/01/14 04:42:41;;;;;;;6.45;1.20;;;;;;;;;;5077905;28;20055;-79
2023/01/14 04:45:07;;;;;;;3.13;0.70;;;;;;;;;;5077778;28;20024;-79
2023/01/14 04:47:32;;;;;;;4.00;0.82;;;;;;;;;;5077735;28;20257;-79
2023/01/14 04:49:57;;;;;;;3.35;0.85;;;;;;;;;;5060114;28;20127;-79
2023/01/14 04:52:24;;;;;;;3.45;0.80;;;;;;;;;;5058565;28;20058;-79
2023/01/14 04:54:52;;;;;;;2.50;0.85;;;;;;;;;;5077690;28;20073;-80
2023/01/14 04:57:19;;;;;;;4.75;0.95;;;;;;;;;;5078035;28;20438;-80
2023/01/14 04:59:44;;;;;;;6.05;0.85;;;;;;;;;;5077212;28;20028;-80
2023/01/14 05:02:09;;;;;;;2.42;0.70;;;;;;;;;;5059575;28;20036;-78
2023/01/14 05:04:35;;;;;;;6.10;0.80;;;;;;;;;;5078124;28;20024;-80
2023/01/14 05:07:02;;;;;;;6.00;0.88;;;;;;;;;;5077875;28;20021;-79
2023/01/14 05:09:27;;;;;;;4.55;0.85;;;;;;;;;;5077625;28;20031;-80
2023/01/14 05:11:52;;;;;;;5.13;0.90;;;;;;;;;;5060312;28;20052;-80
2023/01/14 05:14:18;;;;;;;3.92;1.10;;;;;;;;;;5077710;28;20047;-80
2023/01/14 05:16:43;;;;;;;3.42;0.70;;;;;;;;;;5077833;28;20031;-80
2023/01/14 05:19:08;;;;;;;7.43;0.90;;;;;;;;;;5077552;28;20056;-79
2023/01/14 05:21:34;;;;;;;3.93;1.10;;;;;;;;;;5077371;28;20046;-80
2023/01/14 05:23:59;;;;;;;6.10;1.20;;;;;;;;;;5077275;28;20292;-79
2023/01/14 05:26:24;;;;;;;2.30;0.67;;;;;;;;;;5059330;28;20326;-80
2023/01/14 05:28:49;;;;;;;2.70;0.75;;;;;;;;;;5077984;28;20254;-79
2023/01/14 05:31:15;;;;;;;4.90;1.00;;;;;;;;;;5077917;28;20031;-80
2023/01/14 05:33:40;;;;;;;4.20;0.83;;;;;;;;;;5077749;28;20261;-80
2023/01/14 05:36:06;;;;;;;4.00;1.20;;;;;;;;;;5076973;28;20245;-80
2023/01/14 05:38:31;;;;;;;3.30;0.70;;;;;;;;;;5077265;28;20261;-80
2023/01/14 05:40:56;;;;;;;4.15;0.88;;;;;;;;;;5076810;28;20535;-80
2023/01/14 05:46:08;;;;;;;5.72;0.70;;;;;;;;;;5077407;28;20056;-81
2023/01/14 05:48:34;;;;;;;3.72;0.93;;;;;;;;;;5076647;28;20095;-81
2023/01/14 05:51:02;;;;;;;6.18;1.20;;;;;;;;;;5059375;28;20406;-81
2023/01/14 05:53:27;;;;;;;8.65;1.20;;;;;;;;;;5077093;28;20119;-80
2023/01/14 05:55:53;;;;;;;3.55;0.98;;;;;;;;;;5076568;28;20040;-80
2023/01/14 05:58:19;;;;;;;7.38;0.90;;;;;;;;;;5076635;28;20107;-80
2023/01/14 06:06:23;;;;;;;5.00;1.17;;;;;;;;;;5077921;28;20055;-81
2023/01/14 06:08:55;;;;;;;2.97;0.75;;;;;;;;;;5059056;28;20512;-80
2023/01/14 06:11:23;;;;;;;2.97;1.45;;;;;;;;;;5077495;28;20115;-80
2023/01/14 06:13:49;;;;;;;3.53;0.80;;;;;;;;;;5077691;28;20025;-80
2023/01/14 06:16:15;;;;;;;2.55;0.80;;;;;;;;;;5076505;28;20099;-82
2023/01/14 06:18:43;;;;;;;2.33;0.70;;;;;;;;;;5057799;28;20062;-81
2023/01/14 06:21:11;;;;;;;4.80;0.90;;;;;;;;;;5057642;28;20028;-80
2023/01/14 06:23:37;;;;;;;4.85;1.02;;;;;;;;;;5057936;28;20047;-81
2023/01/14 06:26:03;;;;;;;1.85;0.70;;;;;;;;;;5058286;28;20482;-81
2023/01/14 06:28:31;;;;;;;3.92;0.82;;;;;;;;;;5075912;28;20394;-80
2023/01/14 06:30:56;;;;;;;8.07;1.13;;;;;;;;;;5057793;28;20020;-80
2023/01/14 06:33:22;;;;;;;6.38;1.40;;;;;;;;;;5058052;28;20034;-80
2023/01/14 06:35:49;;;;;;;10.30;1.00;;;;;;;;;;5075869;28;20457;-81
2023/01/14 06:38:14;;;;;;;2.30;0.90;;;;;;;;;;5076007;28;20020;-80
2023/01/14 06:40:40;;;;;;;5.57;1.10;;;;;;;;;;5075664;28;20504;-81
2023/01/14 06:43:06;;;;;;;3.55;1.10;;;;;;;;;;5076302;28;20733;-80
2023/01/14 06:45:32;;;;;;;3.85;0.90;;;;;;;;;;5076372;28;20032;-80
2023/01/14 06:47:58;;;;;;;2.85;0.68;;;;;;;;;;5075895;28;20017;-78
2023/01/14 06:50:23;;;;;;;6.10;1.02;;;;;;;;;;5057949;28;20054;-80
2023/01/14 06:52:49;;;;;;;6.60;1.27;;;;;;;;;;5075537;28;20028;-80
2023/01/14 06:55:15;;;;;;;2.53;0.90;;;;;;;;;;5075857;28;20272;-80
2023/01/14 06:57:42;;;;;;;2.90;0.73;;;;;;;;;;5076683;28;20020;-81
2023/01/14 07:00:08;;;;;;;5.32;0.90;;;;;;;;;;5076104;28;20043;-81
2023/01/14 07:02:33;;;;;;;2.70;0.88;;;;;;;;;;5076432;28;20033;-80
2023/01/14 07:04:58;;;;;;;2.70;0.95;;;;;;;;;;5076449;28;20032;-80
2023/01/14 07:07:23;;;;;;;4.40;1.30;;;;;;;;;;5076191;28;20037;-80
2023/01/14 07:09:48;;;;;;;3.58;0.90;;;;;;;;;;5076715;28;20263;-80
2023/01/14 07:12:14;;;;;;;6.25;1.02;;;;;;;;;;5059306;28;20127;-80
2023/01/14 07:14:39;;;;;;;4.20;0.80;;;;;;;;;;5079113;28;20477;-81
2023/01/14 07:17:04;;;;;;;4.60;1.10;;;;;;;;;;5080675;28;20287;-81
2023/01/14 07:19:29;;;;;;;3.22;0.93;;;;;;;;;;5062220;28;20031;-80
2023/01/14 07:21:55;;;;;;;3.42;0.95;;;;;;;;;;5079882;28;20111;-80
2023/01/14 07:24:20;;;;;;;3.17;0.68;;;;;;;;;;5062446;28;20031;-81
2023/01/14 07:26:45;;;;;;;2.90;0.90;;;;;;;;;;5079647;28;20028;-79
2023/01/14 07:29:11;;;;;;;6.00;1.17;;;;;;;;;;5061108;28;20020;-81
2023/01/14 07:31:36;;;;;;;4.72;1.02;;;;;;;;;;5080317;28;20055;-80
2023/01/14 07:34:01;;;;;;;3.83;1.10;;;;;;;;;;5080360;28;20020;-81
2023/01/14 07:36:26;;;;;;;3.42;1.20;;;;;;;;;;5079812;28;20352;-79
2023/01/14 07:38:51;;;;;;;2.23;0.77;;;;;;;;;;5079677;28;20024;-80
2023/01/14 07:41:18;;;;;;;5.30;1.10;;;;;;;;;;5079943;28;20253;-80
2023/01/14 07:43:46;;;;;;;5.43;1.10;;;;;;;;;;5079966;28;20758;-79
2023/01/14 07:46:11;;;;;;;2.63;0.98;;;;;;;;;;5079763;28;20496;-80
2023/01/14 07:48:37;;;;;;;3.80;1.25;;;;;;;;;;5079414;28;20048;-79
2023/01/14 07:51:04;;;;;;;2.88;1.08;;;;;;;;;;5078626;28;20485;-79
2023/01/14 07:53:30;;;;;;;8.18;1.27;;;;;;;;;;5079855;28;20106;-80
2023/01/14 07:55:55;;;;;;;4.45;1.00;;;;;;;;;;5061023;28;20490;-80
2023/01/14 07:58:21;;;;;;;2.65;0.88;;;;;;;;;;5079751;28;20028;-81
2023/01/14 08:00:47;;;;;;;5.55;1.42;;;;;;;;;;5079600;28;20108;-80
2023/01/14 08:03:12;;;;;;;4.22;1.00;;;;;;;;;;5060704;28;20028;-80
2023/01/14 08:05:37;;;;;;;6.38;1.10;;;;;;;;;;5078955;28;20052;-80
2023/01/14 08:08:03;;;;;;;2.10;0.70;;;;;;;;;;5060923;28;20124;-80
2023/01/14 08:10:28;;;;;;;4.55;1.20;;;;;;;;;;5061371;28;20021;-81
2023/01/14 08:12:53;;;;;;;4.03;1.10;;;;;;;;;;5078581;28;20080;-81
2023/01/14 08:15:19;;;;;;;4.35;1.08;;;;;;;;;;5078489;28;20305;-79
2023/01/14 08:17:44;;;;;;;7.07;1.50;;;;;;;;;;5078895;28;20031;-80
2023/01/14 08:20:10;;;;;;;4.30;1.20;;;;;;;;;;5078040;28;20025;-80
2023/01/14 08:22:36;;;;;;;4.30;1.20;;;;;;;;;;5078258;28;20199;-81
2023/01/14 08:25:02;;;;;;;6.72;1.58;;;;;;;;;;5060095;28;20030;-80
2023/01/14 08:27:27;;;;;;;5.72;1.02;;;;;;;;;;5078354;28;20481;-79
2023/01/14 08:29:53;;;;;;;7.53;1.45;;;;;;;;;;5078258;28;20401;-80
2023/01/14 08:32:18;;;;;;;4.53;1.10;;;;;;;;;;5060325;28;20067;-81
2023/01/14 08:34:46;;;;;;;5.35;1.20;;;;;;;;;;5060100;28;20024;-81
2023/01/14 08:37:12;;;;;;;3.75;1.20;;;;;;;;;;5078554;28;20044;-82
2023/01/14 08:39:37;;;;;;;3.72;1.30;;;;;;;;;;5060236;28;20029;-80
2023/01/14 08:42:03;;;;;;;13.65;1.55;;;;;;;;;;5078449;28;20032;-81
2023/01/14 08:44:28;;;;;;;4.55;1.40;;;;;;;;;;5078487;28;20021;-80
2023/01/14 08:46:54;;;;;;;4.53;1.23;;;;;;;;;;5060501;28;20024;-79
2023/01/14 08:49:19;;;;;;;2.80;1.10;;;;;;;;;;5078467;28;20056;-81
2023/01/14 08:51:44;;;;;;;7.22;1.10;;;;;;;;;;5077799;28;20029;-79
2023/01/14 08:54:09;;;;;;;6.22;0.98;;;;;;;;;;5060221;28;20057;-81
2023/01/14 08:56:35;;;;;;;7.67;1.33;;;;;;;;;;5078611;28;20385;-79
2023/01/14 08:59:01;;;;;;;4.47;1.00;;;;;;;;;;5078321;28;20713;-79
2023/01/14 09:01:26;;;;;;;6.22;1.15;;;;;;;;;;5077931;28;20294;-82
2023/01/14 09:03:53;;;;;;;4.68;1.20;;;;;;;;;;5078015;28;20405;-81
2023/01/14 09:06:19;;;;;;;5.43;1.20;;;;;;;;;;5078275;28;20021;-80
2023/01/14 09:17:07;;;;;;;4.35;1.00;;;;;;;;;;5078446;28;20047;-80
2023/01/14 09:19:36;;;;;;;6.65;1.30;;;;;;;;;;5079468;28;20037;-80
2023/01/14 09:22:03;;;;;;;7.18;1.13;;;;;;;;;;5061288;28;20024;-80
2023/01/14 09:24:28;;;;;;;3.50;1.10;;;;;;;;;;5079547;28;20032;-82
2023/01/14 09:26:53;;;;;;;3.10;0.90;;;;;;;;;;5079757;28;20112;-82
2023/01/14 09:29:18;;;;;;;2.95;0.82;;;;;;;;;;5078884;28;20346;-80
2023/01/14 09:31:44;;;;;;;3.80;1.10;;;;;;;;;;5061810;28;20029;-80
2023/01/14 09:34:09;;;;;;;4.47;1.10;;;;;;;;;;5078679;28;20264;-80
2023/01/14 09:36:34;;;;;;;3.25;1.02;;;;;;;;;;5060960;28;20253;-80
2023/01/14 09:38:59;;;;;;;2.93;1.30;;;;;;;;;;5060003;28;20024;-80
2023/01/14 09:41:29;;;;;;;4.43;1.13;;;;;;;;;;5078338;28;20257;-80
2023/01/14 09:43:54;;;;;;;6.50;0.80;;;;;;;;;;5079062;28;20398;-80
2023/01/14 09:46:30;;;;;;;3.67;1.08;;;;;;;;;;5061447;28;20017;-80
2023/01/14 09:49:03;;;;;;;9.40;1.00;;;;;;;;;;5079261;28;20024;-81
2023/01/14 09:51:50;;;;;;;4.88;0.88;;;;;;;;;;5061196;28;20020;-81
2023/01/14 09:54:33;;;;;;;4.53;1.08;;;;;;;;;;5078982;28;20100;-81
2023/01/14 09:57:15;;;;;;;5.00;1.00;;;;;;;;;;5078821;28;20106;-79
2023/01/14 09:59:50;;;;;;;3.33;1.00;;;;;;;;;;5079534;28;20073;-80
2023/01/14 10:02:20;;;;;;;8.07;1.25;;;;;;;;;;5079082;28;20381;-81
2023/01/14 10:04:58;;;;;;;4.22;0.95;;;;;;;;;;5061440;28;20545;-80
2023/01/14 10:07:24;;;;;;;6.82;1.10;;;;;;;;;;5079233;28;20040;-81
2023/01/14 10:09:58;;;;;;;4.22;0.85;;;;;;;;;;5061777;28;20051;-81
2023/01/14 10:12:26;;;;;;;;;;;;;;;;;;5061618;28;20101;-81
2023/01/14 10:14:59;;;;;;;9.80;1.23;;;;;;;;;;5061236;28;19908;-81
2023/01/14 10:17:29;;;;;;;4.55;0.90;;;;;;;;;;5061198;28;20025;-80
2023/01/14 10:19:54;;;;;;;5.38;1.08;;;;;;;;;;5078575;28;20477;-81
2023/01/14 10:22:42;;;;;;;6.35;1.02;;;;;;;;;;5079460;28;20074;-81
2023/01/14 10:25:17;;;;;;;2.53;1.00;;;;;;;;;;5078265;28;20051;-81
2023/01/14 10:27:46;;;;;;;5.88;1.30;;;;;;;;;;5078711;28;20096;-81
2023/01/14 10:30:32;;;;;;;4.70;0.90;;;;;;;;;;5078476;28;20017;-81
2023/01/14 10:33:01;;;;;;;4.78;0.95;;;;;;;;;;5077794;28;20024;-82
2023/01/14 10:35:34;;;;;;;3.13;1.00;;;;;;;;;;5078942;28;20035;-81
2023/01/14 10:38:00;;;;;;;6.45;1.00;;;;;;;;;;5078750;28;20043;-80
2023/01/14 10:40:28;;;;;;;2.20;0.70;;;;;;;;;;5078231;28;20020;-80
2023/01/14 10:42:55;;;;;;;6.43;1.25;;;;;;;;;;5059329;28;20082;-79
2023/01/14 10:45:21;;;;;;;5.88;0.85;;;;;;;;;;5077811;28;20024;-80
2023/01/14 10:47:47;;;;;;;3.55;0.90;;;;;;;;;;5076823;28;20027;-80
2023/01/14 10:50:27;;;;;;;7.13;1.08;;;;;;;;;;5078115;28;20109;-80
2023/01/14 10:52:53;;;;;;;5.22;1.10;;;;;;;;;;5077773;28;20059;-80
2023/01/14 10:55:21;;;;;;;5.25;1.10;;;;;;;;;;5077426;28;20367;-79
2023/01/14 10:57:52;;;;;;;3.58;0.77;;;;;;;;;;5077400;28;20100;-81
2023/01/14 11:00:39;;;;;;;3.17;1.33;;;;;;;;;;5078133;28;20640;-80
2023/01/14 11:03:32;;;;;;;4.88;1.25;;;;;;;;;;5060147;28;20107;-80
2023/01/14 11:06:05;;;;;;;4.10;0.87;;;;;;;;;;5075383;28;20060;-79
2023/01/14 11:08:51;;;;;;;3.72;1.00;;;;;;;;;;5078069;28;20101;-81
2023/01/14 11:11:24;;;;;;;5.63;1.02;;;;;;;;;;5077002;28;20030;-79
2023/01/14 11:13:53;;;;;;;2.58;1.08;;;;;;;;;;5060290;28;20508;-81
2023/01/14 11:16:21;;;;;;;4.88;1.17;;;;;;;;;;5060019;28;20033;-81
2023/01/14 11:18:55;;;;;;;4.13;1.00;;;;;;;;;;5077395;28;20025;-82
2023/01/14 11:21:22;;;;;;;7.47;1.70;;;;;;;;;;5077285;28;20025;-81
2023/01/14 11:24:03;;;;;;;2.58;0.73;;;;;;;;;;5078189;28;20028;-80
2023/01/14 11:26:38;;;;;;;7.68;1.15;;;;;;;;;;5077097;28;20379;-79
2023/01/14 11:29:23;;;;;;;3.72;0.93;;;;;;;;;;5077606;28;20059;-80
2023/01/14 11:31:52;;;;;;;6.40;1.20;;;;;;;;;;5060133;28;20070;-80
2023/01/14 11:34:38;;;;;;;6.45;1.20;;;;;;;;;;5078074;28;20033;-80
2023/01/14 11:37:17;;;;;;;10.13;1.05;;;;;;;;;;5077936;28;20032;-79
2023/01/14 11:40:04;;;;;;;6.85;1.08;;;;;;;;;;5077965;28;20108;-80
2023/01/14 11:42:34;;;;;;;5.38;1.23;;;;;;;;;;5076969;28;20055;-80
2023/01/14 11:45:16;;;;;;;4.18;0.90;;;;;;;;;;5076999;28;20032;-79
2023/01/14 11:47:54;;;;;;;4.63;1.13;;;;;;;;;;5077622;28;20107;-79
2023/01/14 11:50:26;;;;;;;3.55;0.88;;;;;;;;;;5058740;28;20074;-80
2023/01/14 11:53:04;;;;;;;6.35;1.20;;;;;;;;;;5077714;28;20028;-81
2023/01/14 11:55:36;;;;;;;3.03;0.80;;;;;;;;;;5077645;28;20025;-80
2023/01/14 11:58:14;;;;;;;1.48;0.73;;;;;;;;;;5078004;28;20032;-79
2023/01/14 12:00:44;;;;;;;7.68;1.30;;;;;;;;;;5077100;28;20111;-80
2023/01/14 12:03:22;;;;;;;6.72;1.30;;;;;;;;;;5078907;28;20029;-80
2023/01/14 12:05:50;;;;;;;4.90;0.90;;;;;;;;;;5078681;28;20028;-79
2023/01/14 12:08:18;;;;;;;7.88;1.48;;;;;;;;;;5060956;28;20036;-79
2023/01/14 12:10:47;;;;;;;4.10;1.20;;;;;;;;;;5060699;28;20413;-80
2023/01/14 12:19:46;;;;;;;4.65;1.10;;;;;;;;;;5078877;28;20036;-79
2023/01/14 12:22:20;;;;;;;6.35;1.08;;;;;;;;;;5078713;28;20020;-79
2023/01/14 12:24:57;;;;;;;;;;;;;;;;;;5060599;28;20101;-79
2023/01/14 12:28:01;;;;;;;4.57;1.17;;;;;;;;;;5078468;28;19908;-80
2023/01/14 12:30:45;;;;;;;6.60;1.48;;;;;;;;;;5030096;28;20033;-79
2023/01/14 12:33:31;;;;;;;9.68;1.30;;;;;;;;;;5060393;28;20067;-79
2023/01/14 12:36:14;;;;;;;4.15;1.20;;;;;;;;;;5060068;28;20040;-78
2023/01/14 12:47:42;;;;;;;6.30;2.10;;;;;;;;;;5078314;28;20444;-79
2023/01/14 12:50:12;;;;;;;8.45;2.58;;;;;;;;;;5078026;28;20020;-80
2023/01/14 12:52:40;;;;;;;6.75;1.77;;;;;;;;;;5078204;28;20032;-81
2023/01/14 12:55:17;;;;;;;8.13;1.85;;;;;;;;;;5060054;28;20459;-80
2023/01/14 12:57:42;;;;;;;4.75;1.95;;;;;;;;;;5077995;28;20076;-79
2023/01/14 13:00:11;;;;;;;8.68;4.00;;;;;;;;;;5077786;28;20501;-81
2023/01/14 13:02:45;;;;;;;9.43;3.58;;;;;;;;;;5077576;28;20043;-80
2023/01/14 13:05:22;;;;;;;14.05;5.38;;;;;;;;;;5077471;28;20017;-80
2023/01/14 13:07:58;;;;;;;7.93;1.90;;;;;;;;;;5078028;28;20032;-80
2023/01/14 13:10:26;;;;;;;3.25;1.27;;;;;;;;;;5078074;28;20149;-81
2023/01/14 13:12:52;;;;;;;6.88;1.52;;;;;;;;;;5058011;28;20028;-81
2023/01/14 13:15:17;;;;;;;6.78;1.38;;;;;;;;;;5077729;28;20036;-81
2023/01/14 13:17:44;;;;;;;4.87;1.30;;;;;;;;;;5060851;28;20036;-81
2023/01/14 13:20:19;;;;;;;5.68;1.40;;;;;;;;;;5061179;28;20378;-81
2023/01/14 13:22:52;;;;;;;6.60;1.35;;;;;;;;;;5077714;28;20115;-81
2023/01/14 13:25:20;;;;;;;4.35;1.15;;;;;;;;;;5077204;28;20036;-80
2023/01/14 13:27:46;;;;;;;5.82;1.50;;;;;;;;;;5077426;28;20078;-81
2023/01/14 13:30:17;;;;;;;6.65;2.00;;;;;;;;;;5059162;28;20543;-79
2023/01/14 13:32:59;;;;;;;6.10;1.50;;;;;;;;;;5077766;28;20024;-79
2023/01/14 13:35:25;;;;;;;7.75;1.98;;;;;;;;;;5077573;28;20413;-80
2023/01/14 13:37:53;;;;;;;7.88;1.55;;;;;;;;;;5059197;28;20025;-80
2023/01/14 13:40:21;;;;;;;3.70;1.30;;;;;;;;;;5077184;28;20442;-78
2023/01/14 13:42:56;;;;;;;7.30;1.33;;;;;;;;;;5059615;28;20024;-79
2023/01/14 13:45:26;;;;;;;7.13;1.60;;;;;;;;;;5076996;28;20067;-81
2023/01/14 13:47:54;;;;;;;5.32;1.40;;;;;;;;;;5077512;28;20367;-81
2023/01/14 13:50:38;;;;;;;7.65;1.55;;;;;;;;;;5059126;28;20021;-80
2023/01/14 13:53:21;;;;;;;7.38;1.52;;;;;;;;;;5060761;28;20073;-80
2023/01/14 13:55:55;;;;;;;6.63;1.60;;;;;;;;;;5059182;28;20058;-80
2023/01/14 13:58:47;;;;;;;6.78;1.92;;;;;;;;;;5078007;28;20110;-80
2023/01/14 14:01:31;;;;;;;5.95;1.55;;;;;;;;;;5059285;28;20481;-80
2023/01/14 14:04:03;;;;;;;8.43;1.77;;;;;;;;;;5077016;28;20155;-79
2023/01/14 14:06:29;;;;;;;6.05;1.70;;;;;;;;;;5077218;28;20048;-80
2023/01/14 14:09:01;;;;;;;7.57;1.67;;;;;;;;;;5058800;28;20056;-80
2023/01/14 14:11:29;;;;;;;6.05;1.38;;;;;;;;;;5076742;28;20362;-81
2023/01/14 14:14:07;;;;;;;4.40;1.30;;;;;;;;;;5076559;28;20495;-79
2023/01/14 14:16:37;;;;;;;6.05;1.60;;;;;;;;;;5059134;28;20031;-79
2023/01/14 14:19:02;;;;;;;6.97;1.58;;;;;;;;;;5058725;28;20024;-81
2023/01/14 14:21:38;;;;;;;7.00;1.73;;;;;;;;;;5076693;28;20021;-80
2023/01/14 14:24:12;;;;;;;11.82;4.53;;;;;;;;;;5058136;28;20032;-80
2023/01/14 14:26:38;;;;;;;6.88;2.75;;;;;;;;;;5058689;28;20032;-81
2023/01/14 14:29:12;;;;;;;5.82;1.40;;;;;;;;;;5058587;28;20036;-81
2023/01/14 14:31:39;;;;;;;6.22;1.45;;;;;;;;;;5075748;28;20020;-81
2023/01/14 14:34:20;;;;;;;6.97;1.45;;;;;;;;;;5076222;28;20108;-81
2023/01/14 14:36:55;;;;;;;6.57;1.60;;;;;;;;;;5076489;28;20078;-81
2023/01/14 14:39:28;;;;;;;5.53;1.58;;;;;;;;;;5076317;28;20498;-80
2023/01/14 14:41:55;;;;;;;7.60;1.80;;;;;;;;;;5076293;28;20529;-81
2023/01/14 14:44:23;;;;;;;4.40;1.23;;;;;;;;;;5058294;28;20029;-81
2023/01/14 14:46:49;;;;;;;10.00;1.70;;;;;;;;;;5057433;28;20028;-81
2023/01/14 14:49:20;;;;;;;4.35;1.10;;;;;;;;;;5075450;28;20482;-81
2023/01/14 14:51:51;;;;;;;4.75;1.23;;;;;;;;;;5075791;28;20032;-81
2023/01/14 14:54:30;;;;;;;8.75;1.30;;;;;;;;;;5075907;28;20535;-81
2023/01/14 14:57:00;;;;;;;5.20;1.50;;;;;;;;;;5075976;28;20029;-81
2023/01/14 14:59:28;;;;;;;4.40;1.00;;;;;;;;;;5076009;28;20024;-81
2023/01/14 15:01:54;;;;;;;5.30;1.35;;;;;;;;;;5057626;28;20512;-80
2023/01/14 15:04:22;;;;;;;6.40;1.17;;;;;;;;;;5057854;28;20062;-81
2023/01/14 15:06:49;;;;;;;3.92;1.20;;;;;;;;;;5057488;28;20021;-79
2023/01/14 15:09:19;;;;;;;4.63;1.30;;;;;;;;;;5057641;28;20019;-81
2023/01/14 15:11:46;;;;;;;5.68;1.38;;;;;;;;;;5076505;28;20028;-81
2023/01/14 15:14:30;;;;;;;4.90;1.38;;;;;;;;;;5076010;28;20028;-80
2023/01/14 15:16:56;;;;;;;6.67;1.70;;;;;;;;;;5057712;28;20056;-81
2023/01/14 15:19:23;;;;;;;4.88;1.33;;;;;;;;;;5075350;28;20515;-80
2023/01/14 15:21:50;;;;;;;5.40;1.95;;;;;;;;;;5076333;28;20489;-81
2023/01/14 15:24:18;;;;;;;5.70;1.52;;;;;;;;;;5057202;28;20547;-81
2023/01/14 15:26:45;;;;;;;7.03;1.63;;;;;;;;;;5057148;28;20036;-81
2023/01/14 15:29:16;;;;;;;3.47;1.15;;;;;;;;;;5057502;28;20139;-81
2023/01/14 15:31:42;;;;;;;5.28;1.30;;;;;;;;;;5056984;28;20017;-80
2023/01/14 15:34:16;;;;;;;6.80;1.55;;;;;;;;;;5057644;28;20028;-80
2023/01/14 15:37:06;;;;;;;4.95;1.73;;;;;;;;;;5059747;28;20375;-80
2023/01/14 15:39:34;;;;;;;8.07;1.73;;;;;;;;;;5060697;28;20040;-80